Time;durP1;ratioP1;P1;durP2;ratioP2;P2;SDS_P1;SDS_P2;PMS_P1;PMS_P2;Temp;Humidity;BMP_temperature;BMP_pressure;BME280_temperature;BME280_humidity;BME280_pressure;Samples;Min_cycle;Max_cycle;Signal;HPM_P1;HPM_P2
2022/03/19 00:00:09;;;;;;;141.03;68.67;;;10.10;39.80;;;;;;4980361;28;20329;-72
2022/03/19 00:02:35;;;;;;;130.95;64.35;;;10.00;40.30;;;;;;4975899;28;20181;-71
2022/03/19 00:05:00;;;;;;;130.73;64.87;;;10.20;39.80;;;;;;4989571;28;20187;-71
2022/03/19 00:07:27;;;;;;;124.10;61.90;;;10.20;39.60;;;;;;4983405;28;20176;-71
2022/03/19 00:09:52;;;;;;;145.00;65.25;;;10.00;40.20;;;;;;4976938;28;20195;-71
2022/03/19 00:12:18;;;;;;;130.63;62.77;;;10.20;39.40;;;;;;4983823;28;20190;-71
2022/03/19 00:14:44;;;;;;;122.97;64.40;;;10.40;39.00;;;;;;4988831;28;20207;-71
2022/03/19 00:17:10;;;;;;;138.60;66.27;;;10.30;38.80;;;;;;4984154;28;20703;-71
2022/03/19 00:19:39;;;;;;;137.48;69.90;;;10.10;39.30;;;;;;4984181;28;20268;-71
2022/03/19 00:22:06;;;;;;;129.77;64.78;;;10.40;38.70;;;;;;4987437;28;20183;-71
2022/03/19 00:24:32;;;;;;;133.05;64.68;;;10.20;39.00;;;;;;4986092;28;20595;-71
2022/03/19 00:26:58;;;;;;;144.48;68.82;;;10.30;38.70;;;;;;4984487;28;20656;-71
2022/03/19 00:29:24;;;;;;;130.30;65.10;;;10.00;39.10;;;;;;4983630;28;20193;-72
2022/03/19 00:31:49;;;;;;;143.10;67.60;;;9.80;40.80;;;;;;4992937;28;20177;-72
2022/03/19 00:34:15;;;;;;;150.70;65.77;;;10.10;39.10;;;;;;4982187;28;20216;-72
2022/03/19 00:36:42;;;;;;;145.97;68.50;;;10.00;39.30;;;;;;4986005;28;20212;-71
2022/03/19 00:39:08;;;;;;;143.75;70.32;;;9.90;41.00;;;;;;4991485;28;20229;-72
2022/03/19 00:41:33;;;;;;;149.27;68.70;;;10.00;39.60;;;;;;4987096;28;20198;-72
2022/03/19 00:43:59;;;;;;;141.43;71.33;;;9.30;42.40;;;;;;4985972;28;20194;-72
2022/03/19 00:46:25;;;;;;;148.07;70.83;;;9.50;43.30;;;;;;4990543;28;20177;-72
2022/03/19 00:48:50;;;;;;;151.13;73.37;;;9.60;41.70;;;;;;4984793;28;20194;-72
2022/03/19 00:51:16;;;;;;;152.33;73.90;;;9.20;43.80;;;;;;4985257;28;20662;-72
2022/03/19 00:53:42;;;;;;;147.70;72.57;;;9.50;42.40;;;;;;4975376;28;20659;-72
2022/03/19 00:56:07;;;;;;;157.97;73.20;;;9.70;41.50;;;;;;4987431;28;20179;-71
2022/03/19 00:58:33;;;;;;;135.47;73.00;;;9.80;41.10;;;;;;4980955;28;20629;-73
2022/03/19 01:00:58;;;;;;;151.03;75.90;;;9.80;41.00;;;;;;4991301;28;20658;-72
2022/03/19 01:03:24;;;;;;;157.40;78.70;;;9.90;40.50;;;;;;4984228;28;20744;-72
2022/03/19 01:05:50;;;;;;;150.13;73.47;;;9.80;40.60;;;;;;4983875;28;20231;-72
2022/03/19 01:08:15;;;;;;;154.50;73.67;;;9.70;40.90;;;;;;4983517;28;20177;-72
2022/03/19 01:10:41;;;;;;;152.00;69.70;;;9.50;41.80;;;;;;4983820;28;20766;-73
2022/03/19 01:13:08;;;;;;;151.25;75.68;;;9.70;41.30;;;;;;4989555;28;20205;-73
2022/03/19 01:15:34;;;;;;;147.75;74.78;;;9.70;41.30;;;;;;4988459;28;20188;-71
2022/03/19 01:18:00;;;;;;;147.00;74.85;;;9.90;40.30;;;;;;4990068;28;20262;-72
2022/03/19 01:20:27;;;;;;;156.70;73.35;;;10.00;38.90;;;;;;4980382;28;20234;-71
2022/03/19 01:22:52;;;;;;;151.40;77.50;;;9.70;40.60;;;;;;4983619;28;20202;-72
2022/03/19 01:25:19;;;;;;;148.60;76.00;;;9.50;41.70;;;;;;4984027;28;20652;-71
2022/03/19 01:27:47;;;;;;;141.65;70.05;;;9.70;40.40;;;;;;4979228;28;20649;-72
2022/03/19 01:30:16;;;;;;;148.13;77.28;;;9.60;41.20;;;;;;4988201;28;20206;-72
2022/03/19 01:32:42;;;;;;;146.48;71.68;;;9.80;40.50;;;;;;4984229;28;20183;-71
2022/03/19 01:35:10;;;;;;;146.20;74.87;;;10.10;39.20;;;;;;4984733;28;20645;-72
2022/03/19 01:37:36;;;;;;;149.05;71.97;;;10.00;38.40;;;;;;4980235;28;20422;-72
2022/03/19 01:40:03;;;;;;;144.65;72.15;;;9.80;40.10;;;;;;4979263;28;20218;-72
2022/03/19 01:42:31;;;;;;;158.38;74.25;;;9.30;41.20;;;;;;4983574;28;20232;-72
2022/03/19 01:44:58;;;;;;;139.40;72.68;;;9.20;41.70;;;;;;4991717;28;20212;-72
2022/03/19 01:47:26;;;;;;;140.55;70.00;;;9.40;41.60;;;;;;4982859;28;20500;-72
2022/03/19 01:49:52;;;;;;;141.93;72.15;;;9.60;40.70;;;;;;4984233;28;20226;-72
2022/03/19 01:52:18;;;;;;;147.97;73.83;;;9.30;41.50;;;;;;4995100;28;20213;-72
2022/03/19 01:54:46;;;;;;;138.32;70.22;;;9.50;40.80;;;;;;4987209;28;20189;-72
2022/03/19 01:57:16;;;;;;;142.95;71.47;;;9.30;41.00;;;;;;4996015;28;20182;-72
2022/03/19 01:59:43;;;;;;;142.80;72.53;;;9.20;41.90;;;;;;4987008;28;20253;-72
2022/03/19 02:02:11;;;;;;;146.10;71.43;;;9.30;41.40;;;;;;4991454;28;20272;-72
2022/03/19 02:04:38;;;;;;;146.55;68.07;;;9.40;40.70;;;;;;4988026;28;20245;-72
2022/03/19 02:07:07;;;;;;;147.68;70.82;;;9.40;40.50;;;;;;4995546;28;20182;-73
2022/03/19 02:09:34;;;;;;;146.27;70.60;;;9.30;40.90;;;;;;4989257;28;20194;-72
2022/03/19 02:12:00;;;;;;;157.73;73.40;;;9.30;41.30;;;;;;4989353;28;20755;-72
2022/03/19 02:14:26;;;;;;;145.27;68.60;;;9.50;40.10;;;;;;4994465;28;20546;-72
2022/03/19 02:16:52;;;;;;;137.93;69.47;;;9.60;39.80;;;;;;4987060;28;20202;-72
2022/03/19 02:19:18;;;;;;;132.95;71.03;;;9.40;40.00;;;;;;4994867;28;20440;-72
2022/03/19 02:21:48;;;;;;;147.90;69.10;;;9.40;40.20;;;;;;4992505;28;20205;-71
2022/03/19 02:27:00;;;;;;;141.00;69.22;;;9.30;40.30;;;;;;4986688;28;20776;-72
2022/03/19 02:29:26;;;;;;;157.75;69.28;;;8.90;41.90;;;;;;4991634;28;20698;-71
2022/03/19 02:31:54;;;;;;;158.93;68.30;;;9.10;41.00;;;;;;4990159;28;20186;-72
2022/03/19 02:34:20;;;;;;;145.15;71.63;;;9.20;40.90;;;;;;4989112;28;20429;-72
2022/03/19 02:36:46;;;;;;;135.93;70.35;;;9.10;40.50;;;;;;4987087;28;20265;-71
2022/03/19 02:39:17;;;;;;;140.53;67.30;;;9.10;40.80;;;;;;4994247;28;20730;-73
2022/03/19 02:41:45;;;;;;;137.35;67.40;;;9.20;40.10;;;;;;4986977;28;20426;-73
2022/03/19 02:44:12;;;;;;;144.32;68.55;;;9.20;39.80;;;;;;4984711;28;20621;-72
2022/03/19 02:46:45;;;;;;;139.43;69.50;;;9.10;39.80;;;;;;4978964;28;20569;-72
2022/03/19 02:49:12;;;;;;;133.18;67.93;;;9.10;40.30;;;;;;4986959;28;20194;-72
2022/03/19 02:51:39;;;;;;;132.57;69.32;;;8.70;41.50;;;;;;4987625;28;20174;-72
2022/03/19 02:54:07;;;;;;;135.65;69.63;;;8.90;41.80;;;;;;4994619;28;20182;-72
2022/03/19 02:56:35;;;;;;;136.80;65.60;;;9.00;40.70;;;;;;4991778;28;20189;-72
2022/03/19 02:59:08;;;;;;;136.63;69.22;;;9.10;39.60;;;;;;4994648;28;20201;-71
2022/03/19 03:01:34;;;;;;;132.73;66.75;;;9.00;40.00;;;;;;4986114;28;20184;-72
2022/03/19 03:04:01;;;;;;;139.38;69.57;;;9.10;39.90;;;;;;4980073;28;20211;-73
2022/03/19 03:06:28;;;;;;;147.30;69.43;;;9.10;39.50;;;;;;4983252;28;20262;-71
2022/03/19 03:08:54;;;;;;;130.43;67.40;;;9.00;39.80;;;;;;4985797;28;20206;-73
2022/03/19 03:11:19;;;;;;;138.93;66.68;;;8.70;40.40;;;;;;4986653;28;20183;-72
2022/03/19 03:13:45;;;;;;;123.57;64.50;;;8.70;40.90;;;;;;4985806;28;20182;-72
2022/03/19 03:16:11;;;;;;;137.17;69.80;;;8.70;40.70;;;;;;4986465;28;20272;-72
2022/03/19 03:18:37;;;;;;;134.97;66.20;;;8.60;41.10;;;;;;4987765;28;20186;-73
2022/03/19 03:21:03;;;;;;;127.97;63.63;;;8.70;40.60;;;;;;4991733;28;20186;-72
2022/03/19 03:23:31;;;;;;;122.63;63.87;;;8.60;40.60;;;;;;4986622;28;20217;-71
2022/03/19 03:25:57;;;;;;;138.20;65.80;;;8.60;40.80;;;;;;4986157;28;20178;-73
2022/03/19 03:28:23;;;;;;;134.60;66.65;;;8.60;40.40;;;;;;4993828;28;20186;-71
2022/03/19 03:30:49;;;;;;;117.43;62.47;;;8.80;40.00;;;;;;4990729;28;20182;-73
2022/03/19 03:33:15;;;;;;;134.10;65.87;;;8.80;39.70;;;;;;4986042;28;20289;-72
2022/03/19 03:35:40;;;;;;;126.57;60.87;;;8.90;39.40;;;;;;4991458;28;20436;-73
2022/03/19 03:38:06;;;;;;;132.53;65.50;;;8.70;40.00;;;;;;4985435;28;20241;-72
2022/03/19 03:40:32;;;;;;;128.73;65.83;;;8.60;40.30;;;;;;4990409;28;20273;-72
2022/03/19 03:42:58;;;;;;;128.53;65.90;;;8.90;39.30;;;;;;4975723;28;20190;-72
2022/03/19 03:45:23;;;;;;;124.83;61.50;;;8.70;39.40;;;;;;4994407;28;20204;-72
2022/03/19 03:47:49;;;;;;;124.30;63.80;;;8.60;39.80;;;;;;4993112;28;20178;-72
2022/03/19 03:50:15;;;;;;;126.53;65.70;;;8.60;40.00;;;;;;4985736;28;20202;-72
2022/03/19 03:52:41;;;;;;;131.80;63.75;;;8.60;39.90;;;;;;4989202;28;20178;-72
2022/03/19 03:55:07;;;;;;;127.83;62.60;;;8.40;40.50;;;;;;4991995;28;20193;-71
2022/03/19 03:57:34;;;;;;;124.03;61.55;;;8.40;40.20;;;;;;4982919;28;20720;-71
2022/03/19 04:00:01;;;;;;;130.23;63.38;;;8.40;40.40;;;;;;4991332;28;20202;-72
2022/03/19 04:02:27;;;;;;;122.13;60.30;;;8.40;40.20;;;;;;4985832;28;20212;-73
2022/03/19 04:04:53;;;;;;;114.97;60.90;;;8.50;40.20;;;;;;4985758;28;20206;-72
2022/03/19 04:07:18;;;;;;;121.57;62.10;;;8.30;40.20;;;;;;4985085;28;20429;-70
2022/03/19 04:09:44;;;;;;;131.27;62.83;;;8.40;40.40;;;;;;4990246;28;20197;-72
2022/03/19 04:12:10;;;;;;;122.73;60.97;;;8.20;40.40;;;;;;4993667;28;20257;-71
2022/03/19 04:14:36;;;;;;;116.40;62.03;;;8.20;40.60;;;;;;4982562;28;20214;-71
2022/03/19 04:17:04;;;;;;;129.23;65.20;;;8.20;41.00;;;;;;4988255;28;20726;-71
2022/03/19 04:19:30;;;;;;;119.88;58.45;;;8.40;41.00;;;;;;4987588;28;20208;-71
2022/03/19 04:21:56;;;;;;;132.43;63.07;;;8.40;39.50;;;;;;4992397;28;20186;-71
2022/03/19 04:24:21;;;;;;;124.03;63.20;;;8.50;39.40;;;;;;4979304;28;20289;-71
2022/03/19 04:26:47;;;;;;;121.00;60.13;;;8.50;39.30;;;;;;4978257;28;20253;-71
2022/03/19 04:29:13;;;;;;;116.50;59.77;;;8.40;39.40;;;;;;4993394;28;20190;-70
2022/03/19 04:31:38;;;;;;;136.80;61.60;;;8.10;40.40;;;;;;4993907;28;20273;-70
2022/03/19 04:34:04;;;;;;;115.80;59.27;;;8.30;39.90;;;;;;4993704;28;20185;-71
2022/03/19 04:36:30;;;;;;;122.00;60.63;;;8.40;39.40;;;;;;4994080;28;20178;-71
2022/03/19 04:39:02;;;;;;;118.30;62.65;;;8.30;39.40;;;;;;4985346;28;20683;-71
2022/03/19 04:41:28;;;;;;;121.07;60.35;;;8.00;40.30;;;;;;4985223;28;20186;-72
2022/03/19 04:43:54;;;;;;;124.63;60.30;;;8.10;39.90;;;;;;4990277;28;20202;-71
2022/03/19 04:46:20;;;;;;;140.80;61.60;;;8.10;39.90;;;;;;4983836;28;20477;-72
2022/03/19 04:48:46;;;;;;;117.25;60.20;;;8.30;38.90;;;;;;4990089;28;20441;-72
2022/03/19 04:51:17;;;;;;;128.67;60.97;;;8.30;38.70;;;;;;4987872;28;20178;-71
2022/03/19 04:53:50;;;;;;;117.05;60.08;;;8.20;39.00;;;;;;4984494;28;20792;-70
2022/03/19 04:56:23;;;;;;;126.32;59.85;;;8.30;38.90;;;;;;4991647;28;20188;-71
2022/03/19 04:58:50;;;;;;;129.98;60.10;;;8.50;38.30;;;;;;4991925;28;20295;-71
2022/03/19 05:01:16;;;;;;;129.38;61.40;;;8.50;38.40;;;;;;4987988;28;20641;-71
2022/03/19 05:03:42;;;;;;;124.05;59.38;;;8.20;39.00;;;;;;4981195;28;20210;-71
2022/03/19 05:06:08;;;;;;;126.50;60.80;;;8.10;39.50;;;;;;4982230;28;20186;-71
2022/03/19 05:08:34;;;;;;;127.30;59.03;;;8.10;39.10;;;;;;4979405;28;20641;-71
2022/03/19 05:11:17;;;;;;;121.50;60.95;;;8.20;38.60;;;;;;4990620;28;20520;-71
2022/03/19 05:13:45;;;;;;;122.32;56.78;;;8.30;38.50;;;;;;4991107;28;20174;-71
2022/03/19 05:16:15;;;;;;;123.35;58.90;;;8.30;38.40;;;;;;4990934;28;20174;-71
2022/03/19 05:18:41;;;;;;;126.20;61.30;;;8.10;39.10;;;;;;4980285;28;20182;-71
2022/03/19 05:21:06;;;;;;;115.18;59.30;;;8.10;38.90;;;;;;4992298;28;20607;-71
2022/03/19 05:23:34;;;;;;;119.50;57.73;;;8.20;39.00;;;;;;4987034;28;20301;-71
2022/03/19 05:26:00;;;;;;;120.72;58.72;;;8.30;38.00;;;;;;4983987;28;20261;-71
2022/03/19 05:28:26;;;;;;;122.47;57.13;;;8.20;38.40;;;;;;4988272;28;20186;-71
2022/03/19 05:30:57;;;;;;;123.90;58.47;;;8.20;38.40;;;;;;4996400;28;20177;-69
2022/03/19 05:34:29;;;;;;;115.45;57.03;;;7.90;38.40;;;;;;4987047;28;20200;-71
2022/03/19 05:36:09;;;;;;;115.78;57.22;;;8.10;38.10;;;;;;4995108;28;20280;-72
2022/03/19 05:38:35;;;;;;;113.07;55.40;;;8.00;39.00;;;;;;4989713;28;20210;-72
2022/03/19 05:41:01;;;;;;;109.90;58.00;;;8.10;38.20;;;;;;4986695;28;20691;-71
2022/03/19 05:43:27;;;;;;;123.13;58.17;;;8.00;38.90;;;;;;4988555;28;20285;-71
2022/03/19 05:45:52;;;;;;;110.67;55.73;;;8.30;38.10;;;;;;4989072;28;20823;-71
2022/03/19 05:48:18;;;;;;;112.37;58.50;;;8.10;38.00;;;;;;4994636;28;20178;-70
2022/03/19 05:50:43;;;;;;;106.83;55.37;;;8.20;37.60;;;;;;4995996;28;20225;-71
2022/03/19 05:53:09;;;;;;;113.40;56.07;;;8.00;38.20;;;;;;4984806;28;20237;-71
2022/03/19 05:55:35;;;;;;;123.93;59.27;;;7.90;38.40;;;;;;4988065;28;20181;-71
2022/03/19 05:58:00;;;;;;;117.00;57.40;;;7.90;38.40;;;;;;4988282;28;20243;-72
2022/03/19 06:00:26;;;;;;;116.37;57.50;;;8.20;37.60;;;;;;4995299;28;20205;-71
2022/03/19 06:02:51;;;;;;;115.77;54.23;;;8.20;37.60;;;;;;4995835;28;20204;-71
2022/03/19 06:05:17;;;;;;;108.33;55.83;;;8.40;37.20;;;;;;4986703;28;20181;-71
2022/03/19 06:07:43;;;;;;;110.57;55.13;;;8.40;37.40;;;;;;4984292;28;20187;-72
2022/03/19 06:10:09;;;;;;;115.23;55.97;;;8.40;37.20;;;;;;4991984;28;20572;-71
2022/03/19 06:12:35;;;;;;;107.32;53.97;;;8.60;36.60;;;;;;4985242;28;20187;-71
2022/03/19 06:15:00;;;;;;;114.83;54.90;;;8.50;37.20;;;;;;4983354;28;20192;-71
2022/03/19 06:17:26;;;;;;;109.83;56.43;;;8.50;36.70;;;;;;4979736;28;20194;-72
2022/03/19 06:19:54;;;;;;;100.70;56.67;;;8.60;36.40;;;;;;4994601;28;20692;-71
2022/03/19 06:22:20;;;;;;;125.35;58.40;;;8.40;37.30;;;;;;4994983;28;20189;-71
2022/03/19 06:24:46;;;;;;;113.68;55.97;;;8.30;37.00;;;;;;4986515;28;20210;-71
2022/03/19 06:27:11;;;;;;;113.53;56.67;;;8.40;37.20;;;;;;4980751;28;20530;-71
2022/03/19 06:29:37;;;;;;;113.90;54.40;;;8.40;36.90;;;;;;4984309;28;20570;-71
2022/03/19 06:32:03;;;;;;;105.73;54.20;;;8.50;37.10;;;;;;4987357;28;20632;-71
2022/03/19 06:34:30;;;;;;;127.23;53.90;;;8.60;37.10;;;;;;4985745;28;20205;-71
2022/03/19 06:37:39;;;;;;;112.63;56.53;;;8.70;35.90;;;;;;4982289;28;20525;-71
2022/03/19 06:39:48;;;;;;;130.05;56.70;;;8.90;35.80;;;;;;4982692;28;20227;-71
2022/03/19 06:42:13;;;;;;;110.18;52.67;;;8.80;35.60;;;;;;4995549;28;20446;-71
2022/03/19 06:44:39;;;;;;;108.00;53.30;;;9.10;35.00;;;;;;4987165;28;20331;-71
2022/03/19 06:47:06;;;;;;;107.87;54.30;;;8.60;36.00;;;;;;4989675;28;20175;-69
2022/03/19 06:49:32;;;;;;;105.15;52.00;;;8.40;37.10;;;;;;4982180;28;20206;-69
2022/03/19 06:51:57;;;;;;;109.13;54.10;;;8.60;36.20;;;;;;4985026;28;20264;-70
2022/03/19 06:54:23;;;;;;;102.60;54.07;;;8.60;36.00;;;;;;4987828;28;20428;-70
2022/03/19 06:56:49;;;;;;;101.33;50.50;;;8.60;36.00;;;;;;4983356;28;20178;-73
2022/03/19 06:59:15;;;;;;;98.35;52.05;;;8.70;36.00;;;;;;4979539;28;20259;-73
2022/03/19 07:01:41;;;;;;;114.23;51.80;;;8.80;35.90;;;;;;4992371;28;20272;-73
2022/03/19 07:04:06;;;;;;;103.40;52.43;;;8.80;35.80;;;;;;4984665;28;20675;-72
2022/03/19 07:06:32;;;;;;;113.33;57.30;;;8.90;35.50;;;;;;4986631;28;20183;-69
2022/03/19 07:08:58;;;;;;;107.90;53.80;;;9.20;34.50;;;;;;4985285;28;20213;-69
2022/03/19 07:11:23;;;;;;;104.23;50.20;;;9.30;33.30;;;;;;4986332;28;20178;-68
2022/03/19 07:13:49;;;;;;;95.67;49.30;;;9.00;34.30;;;;;;4992022;28;20204;-68
2022/03/19 07:16:17;;;;;;;95.73;50.10;;;8.10;36.80;;;;;;4993927;28;20209;-68
2022/03/19 07:18:43;;;;;;;94.70;52.13;;;8.10;37.20;;;;;;4990767;28;20613;-68
2022/03/19 07:21:10;;;;;;;92.80;49.20;;;8.20;37.40;;;;;;4992035;28;20252;-68
2022/03/19 07:23:36;;;;;;;98.00;50.63;;;8.60;36.70;;;;;;4990114;28;20217;-69
2022/03/19 07:26:02;;;;;;;92.03;49.60;;;8.90;35.50;;;;;;4991595;28;20186;-69
2022/03/19 07:28:28;;;;;;;87.57;48.03;;;9.30;34.60;;;;;;4993405;28;20633;-69
2022/03/19 07:30:56;;;;;;;88.25;48.35;;;9.40;33.60;;;;;;4992968;28;20428;-69
2022/03/19 07:33:22;;;;;;;91.15;49.70;;;9.30;34.50;;;;;;4993521;28;20642;-69
2022/03/19 07:35:48;;;;;;;88.38;49.63;;;9.60;33.00;;;;;;4993934;28;20216;-69
2022/03/19 07:38:14;;;;;;;99.03;50.00;;;9.60;33.00;;;;;;4992205;28;20762;-69
2022/03/19 07:43:24;;;;;;;92.40;51.00;;;9.80;32.40;;;;;;4990025;28;20252;-71
2022/03/19 07:45:50;;;;;;;84.90;47.60;;;9.70;32.50;;;;;;4985370;28;20174;-70
2022/03/19 07:48:16;;;;;;;96.53;50.83;;;9.60;33.00;;;;;;4993225;28;20417;-71
2022/03/19 07:50:42;;;;;;;95.57;48.95;;;9.60;33.00;;;;;;4993606;28;20198;-71
2022/03/19 07:53:08;;;;;;;93.00;49.57;;;9.50;32.90;;;;;;4982122;28;20629;-70
2022/03/19 07:55:34;;;;;;;92.87;48.53;;;9.50;32.90;;;;;;4987513;28;20429;-71
2022/03/19 07:58:00;;;;;;;110.97;49.28;;;9.80;32.70;;;;;;4983912;28;20258;-71
2022/03/19 08:00:26;;;;;;;91.43;48.33;;;9.70;33.10;;;;;;4980739;28;20281;-71
2022/03/19 08:02:52;;;;;;;92.55;46.70;;;10.00;30.70;;;;;;4986244;28;20425;-70
2022/03/19 08:05:18;;;;;;;94.20;48.40;;;10.30;30.40;;;;;;4975003;28;20454;-70
2022/03/19 08:07:44;;;;;;;86.40;47.50;;;10.60;29.60;;;;;;4985825;28;20186;-70
2022/03/19 08:10:11;;;;;;;82.88;44.65;;;10.20;30.20;;;;;;4991744;28;20233;-70
2022/03/19 08:12:37;;;;;;;98.43;47.17;;;10.20;30.40;;;;;;4987448;28;20196;-70
2022/03/19 08:15:04;;;;;;;89.88;48.30;;;10.40;29.60;;;;;;4981457;28;20183;-70
2022/03/19 08:17:30;;;;;;;94.90;47.78;;;9.90;31.10;;;;;;4991717;28;20850;-70
2022/03/19 08:20:00;;;;;;;83.10;47.00;;;9.80;31.90;;;;;;4984805;28;20364;-70
2022/03/19 08:22:26;;;;;;;86.70;49.10;;;10.20;30.30;;;;;;4983946;28;20177;-70
2022/03/19 08:24:52;;;;;;;84.93;45.63;;;10.70;29.50;;;;;;4984312;28;20236;-70
2022/03/19 08:27:18;;;;;;;103.87;49.23;;;10.90;28.60;;;;;;4991019;28;20216;-70
2022/03/19 08:29:43;;;;;;;84.63;46.27;;;10.40;29.30;;;;;;4984130;28;20671;-71
2022/03/19 08:32:10;;;;;;;77.23;42.97;;;10.40;29.60;;;;;;4983864;28;20430;-70
2022/03/19 08:34:36;;;;;;;90.72;46.70;;;10.60;28.40;;;;;;4990976;28;20231;-71
2022/03/19 08:37:03;;;;;;;84.90;45.38;;;10.40;29.00;;;;;;4986477;28;20200;-70
2022/03/19 08:42:12;;;;;;;87.47;46.03;;;10.10;28.90;;;;;;4988283;28;20279;-71
2022/03/19 08:44:38;;;;;;;80.23;44.83;;;10.60;28.40;;;;;;4988617;28;20236;-71
2022/03/19 08:47:04;;;;;;;88.30;44.33;;;10.30;29.30;;;;;;4984325;28;20670;-71
2022/03/19 08:49:30;;;;;;;80.67;42.43;;;10.80;28.00;;;;;;4981608;28;20249;-72
2022/03/19 08:51:56;;;;;;;76.23;42.63;;;11.30;27.30;;;;;;4973504;28;20982;-72
2022/03/19 08:54:21;;;;;;;78.40;42.00;;;11.50;26.50;;;;;;4984632;28;20169;-72
2022/03/19 08:56:48;;;;;;;80.27;42.57;;;11.60;26.30;;;;;;4983504;28;20424;-71
2022/03/19 08:59:19;;;;;;;79.43;42.97;;;11.60;26.10;;;;;;4983016;28;20201;-71
2022/03/19 09:01:45;;;;;;;73.90;42.83;;;11.70;25.90;;;;;;4977145;28;20425;-72
2022/03/19 09:04:11;;;;;;;72.63;40.57;;;11.70;25.80;;;;;;4990295;28;20551;-72
2022/03/19 09:06:38;;;;;;;78.20;43.80;;;11.80;26.00;;;;;;4983121;28;20916;-72
2022/03/19 09:09:04;;;;;;;77.70;44.40;;;12.20;26.00;;;;;;4990778;28;20448;-72
2022/03/19 09:11:32;;;;;;;72.60;42.27;;;12.30;25.00;;;;;;4990025;28;20421;-72
2022/03/19 09:13:58;;;;;;;81.63;41.70;;;12.30;25.00;;;;;;4979811;28;20434;-72
2022/03/19 09:16:24;;;;;;;82.73;40.90;;;12.30;24.40;;;;;;4980228;28;20422;-71
2022/03/19 09:18:50;;;;;;;72.67;40.80;;;12.00;25.60;;;;;;4987633;28;20454;-72
2022/03/19 09:21:17;;;;;;;71.93;40.70;;;11.80;25.00;;;;;;4979881;28;20476;-72
2022/03/19 09:23:45;;;;;;;65.87;39.20;;;12.20;24.90;;;;;;4979960;28;20893;-72
2022/03/19 09:26:11;;;;;;;72.80;40.43;;;12.30;24.50;;;;;;4979977;28;20935;-71
2022/03/19 09:28:37;;;;;;;73.23;41.57;;;11.90;25.30;;;;;;4988997;28;20426;-71
2022/03/19 09:31:03;;;;;;;82.30;40.43;;;11.80;25.20;;;;;;4989632;28;20432;-71
2022/03/19 09:33:29;;;;;;;72.80;39.00;;;12.00;25.10;;;;;;4988814;28;20417;-70
2022/03/19 09:35:54;;;;;;;65.57;38.23;;;12.40;24.50;;;;;;4990416;28;20803;-71
2022/03/19 09:38:20;;;;;;;73.40;39.17;;;12.70;24.40;;;;;;4986080;28;20192;-70
2022/03/19 09:40:46;;;;;;;64.70;38.00;;;13.00;23.50;;;;;;4988414;28;20268;-70
2022/03/19 09:43:12;;;;;;;62.30;37.83;;;12.70;23.10;;;;;;4982894;28;20206;-71
2022/03/19 09:45:40;;;;;;;65.30;37.43;;;13.20;22.20;;;;;;4989312;28;20186;-70
2022/03/19 09:48:06;;;;;;;69.33;38.07;;;13.30;22.60;;;;;;4990486;28;20262;-71
2022/03/19 09:50:34;;;;;;;72.87;36.83;;;13.40;22.00;;;;;;4984155;28;20491;-71
2022/03/19 09:53:03;;;;;;;68.07;36.50;;;13.40;22.40;;;;;;4979801;28;20454;-71
2022/03/19 09:55:30;;;;;;;75.53;36.20;;;12.90;22.80;;;;;;4985119;28;20446;-71
2022/03/19 09:57:57;;;;;;;67.70;36.20;;;13.20;22.20;;;;;;4973711;28;20452;-70
2022/03/19 10:00:24;;;;;;;60.17;34.00;;;13.60;21.40;;;;;;4979651;28;20441;-71
2022/03/19 10:03:02;;;;;;;58.57;35.63;;;13.00;21.00;;;;;;4986957;28;20798;-71
2022/03/19 10:08:43;;;;;;;65.40;35.93;;;13.10;22.50;;;;;;4981713;28;20855;-70
2022/03/19 10:11:15;;;;;;;62.70;35.60;;;13.40;21.80;;;;;;4988779;28;20431;-70
2022/03/19 10:13:45;;;;;;;62.63;36.53;;;13.90;21.50;;;;;;4981142;28;20426;-70
2022/03/19 10:16:25;;;;;;;65.43;36.37;;;14.00;20.90;;;;;;4985482;28;20436;-70
2022/03/19 10:19:00;;;;;;;59.13;34.10;;;14.30;21.00;;;;;;4986875;28;20447;-70
2022/03/19 10:21:28;;;;;;;65.63;34.47;;;14.60;20.40;;;;;;4983255;28;20828;-70
2022/03/19 10:23:55;;;;;;;66.20;37.23;;;14.80;20.70;;;;;;4977762;28;20813;-70
2022/03/19 10:26:25;;;;;;;61.50;36.20;;;14.40;20.40;;;;;;4991092;28;20422;-70
2022/03/19 10:28:59;;;;;;;53.43;31.93;;;14.80;20.60;;;;;;4981042;28;20436;-70
2022/03/19 10:31:44;;;;;;;64.07;32.90;;;15.00;19.40;;;;;;4991008;28;20428;-70
2022/03/19 10:34:10;;;;;;;56.83;32.47;;;15.10;19.20;;;;;;4991719;28;20439;-71
2022/03/19 10:36:54;;;;;;;62.10;34.87;;;15.00;18.30;;;;;;4994173;28;20819;-70
2022/03/19 10:39:22;;;;;;;56.67;33.07;;;14.80;18.80;;;;;;4985162;28;21026;-70
2022/03/19 10:41:48;;;;;;;56.97;35.57;;;15.00;19.00;;;;;;4994335;28;20784;-70
2022/03/19 10:44:19;;;;;;;57.50;35.17;;;15.50;19.30;;;;;;4992673;28;20456;-70
2022/03/19 10:46:59;;;;;;;66.33;36.03;;;15.80;18.70;;;;;;4993743;28;20422;-70
2022/03/19 10:49:28;;;;;;;63.27;35.77;;;16.00;18.20;;;;;;4986482;28;20437;-70
2022/03/19 10:51:58;;;;;;;84.80;37.67;;;15.40;19.40;;;;;;4993202;28;20425;-71
2022/03/19 10:54:24;;;;;;;66.30;36.20;;;15.50;19.00;;;;;;4984679;28;20450;-70
2022/03/19 10:56:52;;;;;;;66.17;37.47;;;14.60;19.60;;;;;;4985754;28;20429;-70
2022/03/19 10:59:19;;;;;;;64.03;35.90;;;14.20;20.80;;;;;;4992937;28;20469;-70
2022/03/19 11:01:49;;;;;;;59.37;37.00;;;14.90;19.70;;;;;;4985378;28;20424;-70
2022/03/19 11:04:15;;;;;;;60.80;37.67;;;15.20;18.40;;;;;;4992876;28;20468;-70
2022/03/19 11:06:51;;;;;;;64.70;36.47;;;16.00;18.10;;;;;;4985274;28;20582;-70
2022/03/19 11:09:19;;;;;;;63.27;36.63;;;17.10;17.10;;;;;;4987027;28;20439;-70
2022/03/19 11:11:57;;;;;;;62.67;38.00;;;17.90;16.10;;;;;;4985255;28;20922;-70
2022/03/19 11:14:28;;;;;;;57.03;36.63;;;17.50;16.40;;;;;;5025471;22;20507;-72
2022/03/19 11:17:24;;;;;;;63.13;36.90;;;17.90;16.20;;;;;;5015758;28;20455;-72
2022/03/19 11:20:02;;;;;;;52.47;35.03;;;18.50;16.00;;;;;;5004901;28;20411;-73
2022/03/19 11:22:43;;;;;;;51.07;34.60;;;18.70;14.70;;;;;;4996444;28;20405;-72
2022/03/19 11:25:19;;;;;;;60.27;34.73;;;18.90;15.00;;;;;;5006235;28;20462;-72
2022/03/19 11:27:48;;;;;;;48.03;32.00;;;18.90;14.80;;;;;;5006025;28;20517;-72
2022/03/19 11:30:27;;;;;;;48.33;33.77;;;18.30;14.00;;;;;;5013439;28;20416;-72
2022/03/19 11:33:15;;;;;;;58.33;34.00;;;18.70;13.40;;;;;;5011355;28;20456;-71
2022/03/19 11:35:54;;;;;;;51.50;33.40;;;19.30;13.10;;;;;;5011297;28;20439;-71
2022/03/19 11:38:22;;;;;;;50.50;33.23;;;19.40;13.70;;;;;;4999197;28;20476;-72
2022/03/19 11:40:54;;;;;;;50.90;33.50;;;20.00;12.20;;;;;;5002232;28;20478;-72
2022/03/19 11:43:32;;;;;;;55.23;32.03;;;20.40;12.80;;;;;;4999029;28;20460;-72
2022/03/19 11:46:17;;;;;;;47.20;31.77;;;20.90;11.30;;;;;;5003755;28;20424;-72
2022/03/19 11:48:50;;;;;;;53.90;31.97;;;21.30;12.30;;;;;;5002528;28;20429;-71
2022/03/19 11:51:25;;;;;;;50.40;32.80;;;21.50;11.10;;;;;;4992071;28;20941;-72
2022/03/19 11:54:03;;;;;;;52.20;31.53;;;21.30;11.90;;;;;;4994779;28;20447;-72
2022/03/19 11:56:49;;;;;;;45.73;30.20;;;21.70;11.50;;;;;;5004553;28;20494;-71
2022/03/19 11:59:23;;;;;;;49.57;32.07;;;20.40;11.80;;;;;;4997743;28;20432;-72
2022/03/19 12:02:10;;;;;;;48.40;30.80;;;20.60;12.70;;;;;;5011510;28;20423;-72
2022/03/19 12:04:54;;;;;;;53.07;31.90;;;21.90;12.00;;;;;;4996812;28;20559;-72
2022/03/19 12:07:39;;;;;;;51.87;32.50;;;22.20;12.30;;;;;;5000954;28;20515;-71
2022/03/19 12:10:24;;;;;;;45.80;32.77;;;21.30;12.10;;;;;;5008119;28;20421;-72
2022/03/19 12:12:51;;;;;;;50.13;32.60;;;22.30;10.60;;;;;;5003278;28;20451;-72
2022/03/19 12:15:45;;;;;;;51.67;31.33;;;22.60;10.90;;;;;;5004191;28;20551;-72
2022/03/19 12:18:24;;;;;;;44.03;29.03;;;22.80;11.40;;;;;;4992703;28;20429;-72
2022/03/19 12:20:51;;;;;;;64.80;25.90;;;21.90;11.00;;;;;;5000638;28;20416;-72
2022/03/19 12:23:18;;;;;;;40.50;26.63;;;22.40;10.40;;;;;;5003727;28;20854;-72
2022/03/19 12:25:51;;;;;;;42.27;26.40;;;22.70;10.10;;;;;;5003950;28;20431;-72
2022/03/19 12:28:17;;;;;;;38.50;26.80;;;22.40;9.80;;;;;;5003643;28;20412;-72
2022/03/19 12:30:44;;;;;;;41.63;25.03;;;22.50;9.30;;;;;;5003952;28;20589;-72
2022/03/19 12:33:09;;;;;;;34.53;22.17;;;22.20;9.10;;;;;;4992622;28;20495;-71
2022/03/19 12:35:35;;;;;;;29.87;22.20;;;21.30;10.80;;;;;;5000769;28;20413;-71
2022/03/19 12:38:00;;;;;;;33.07;22.13;;;22.00;10.10;;;;;;5001541;28;20597;-72
2022/03/19 12:41:23;;;;;;;35.50;22.47;;;22.10;9.00;;;;;;5006635;28;20216;-71
2022/03/19 12:43:14;;;;;;;39.63;21.77;;;22.00;9.50;;;;;;4999532;28;20201;-71